Time;durP1;ratioP1;P1;durP2;ratioP2;P2;SDS_P1;SDS_P2;PMS_P1;PMS_P2;Temp;Humidity;BMP_temperature;BMP_pressure;BME280_temperature;BME280_humidity;BME280_pressure;Samples;Min_cycle;Max_cycle;Signal;HPM_P1;HPM_P2
2023/05/30 00:02:17;;;;;;;1.15;0.68;;;15.90;98.10;;;;;;5055566;28;20208;-62
2023/05/30 00:04:45;;;;;;;0.95;0.73;;;15.90;97.80;;;;;;5050071;28;20207;-62
2023/05/30 00:07:17;;;;;;;0.60;0.40;;;15.90;97.80;;;;;;5056547;28;20725;-62
2023/05/30 00:09:45;;;;;;;0.80;0.60;;;15.90;97.70;;;;;;5056324;28;20195;-62
2023/05/30 00:12:13;;;;;;;0.80;0.50;;;15.80;97.60;;;;;;5055260;28;20203;-62
2023/05/30 00:14:41;;;;;;;0.60;0.50;;;15.90;97.80;;;;;;5063834;28;20662;-62
2023/05/30 00:17:09;;;;;;;0.65;0.55;;;15.80;97.10;;;;;;5064908;28;20242;-62
2023/05/30 00:19:37;;;;;;;0.60;0.40;;;15.80;97.30;;;;;;5051983;28;20226;-62
2023/05/30 00:22:06;;;;;;;0.65;0.52;;;15.90;97.30;;;;;;5051682;28;20215;-62
2023/05/30 00:24:35;;;;;;;1.70;1.05;;;15.90;97.40;;;;;;5046067;28;20617;-62
2023/05/30 00:27:03;;;;;;;0.70;0.50;;;15.80;97.20;;;;;;5052629;28;20242;-61
2023/05/30 00:29:31;;;;;;;2.20;0.60;;;15.80;97.30;;;;;;5052313;28;20196;-61
2023/05/30 00:31:59;;;;;;;1.20;0.70;;;15.80;97.20;;;;;;5052547;28;20210;-61
2023/05/30 00:34:27;;;;;;;0.60;0.40;;;15.80;97.20;;;;;;5052113;28;20208;-61
2023/05/30 00:36:55;;;;;;;0.60;0.50;;;15.80;97.30;;;;;;5052445;28;20238;-61
2023/05/30 00:39:23;;;;;;;0.60;0.52;;;15.80;97.20;;;;;;5052199;28;20219;-62
2023/05/30 00:41:52;;;;;;;0.70;0.40;;;15.70;97.20;;;;;;5051517;28;20208;-62
2023/05/30 00:44:20;;;;;;;3.42;0.77;;;15.70;97.20;;;;;;5052047;28;20724;-62
2023/05/30 00:46:49;;;;;;;0.60;0.50;;;15.70;97.50;;;;;;5052218;28;20289;-62
2023/05/30 00:49:18;;;;;;;1.35;1.25;;;15.70;97.60;;;;;;5052066;28;20203;-62
2023/05/30 00:51:46;;;;;;;0.80;0.50;;;15.70;97.50;;;;;;5051998;28;20204;-62
2023/05/30 00:54:14;;;;;;;0.70;0.60;;;15.70;97.50;;;;;;5051698;28;20204;-62
2023/05/30 00:56:43;;;;;;;1.30;0.45;;;15.70;97.70;;;;;;5052212;28;20580;-61
2023/05/30 00:59:12;;;;;;;0.60;0.40;;;15.60;97.70;;;;;;5051795;28;20226;-61
2023/05/30 01:01:42;;;;;;;0.60;0.50;;;15.60;98.00;;;;;;5052032;28;20261;-62
2023/05/30 01:04:10;;;;;;;0.70;0.50;;;15.60;98.00;;;;;;5051784;28;20662;-62
2023/05/30 01:06:38;;;;;;;0.60;0.50;;;15.50;98.00;;;;;;5052111;28;20668;-62
2023/05/30 01:09:08;;;;;;;1.00;0.90;;;15.50;98.10;;;;;;5052013;28;20204;-62
2023/05/30 01:11:47;;;;;;;0.60;0.40;;;15.50;98.30;;;;;;5049353;28;20295;-62
2023/05/30 01:14:23;;;;;;;0.60;0.40;;;15.40;98.40;;;;;;5051798;28;20203;-61
2023/05/30 01:16:55;;;;;;;0.70;0.50;;;15.40;98.40;;;;;;5051580;28;20230;-62
2023/05/30 01:19:46;;;;;;;0.60;0.50;;;15.30;98.70;;;;;;5051512;28;20223;-62
2023/05/30 01:22:22;;;;;;;0.60;0.50;;;15.40;98.70;;;;;;5051309;28;20203;-61
2023/05/30 01:25:06;;;;;;;1.33;0.65;;;15.30;98.70;;;;;;5051568;28;20211;-62
2023/05/30 01:27:44;;;;;;;0.75;0.52;;;15.30;99.00;;;;;;5051003;28;20227;-62
2023/05/30 01:30:14;;;;;;;1.88;0.70;;;15.30;99.10;;;;;;5051394;28;20724;-61
2023/05/30 01:32:42;;;;;;;0.60;0.50;;;15.20;99.10;;;;;;5051529;28;20200;-62
2023/05/30 01:35:21;;;;;;;0.70;0.60;;;15.20;99.00;;;;;;5051307;28;20210;-62
2023/05/30 01:37:50;;;;;;;1.25;0.68;;;15.20;99.00;;;;;;5051321;28;20233;-61
2023/05/30 01:40:21;;;;;;;4.60;1.60;;;15.20;99.00;;;;;;5051001;28;20224;-62
2023/05/30 01:42:55;;;;;;;2.35;0.50;;;15.20;99.20;;;;;;5051434;28;20220;-62
2023/05/30 01:45:31;;;;;;;0.60;0.43;;;15.10;99.20;;;;;;5051036;28;20603;-62
2023/05/30 01:48:06;;;;;;;0.80;0.57;;;15.10;99.10;;;;;;5051261;28;20292;-61
2023/05/30 01:50:41;;;;;;;0.73;0.50;;;15.10;99.40;;;;;;5051074;28;20244;-62
2023/05/30 01:53:15;;;;;;;0.80;0.60;;;15.00;99.70;;;;;;5053442;28;20216;-62
2023/05/30 01:55:45;;;;;;;0.68;0.47;;;14.90;99.60;;;;;;5057501;28;20204;-61
2023/05/30 01:58:17;;;;;;;1.55;0.57;;;15.00;99.60;;;;;;5053688;28;20702;-61
2023/05/30 02:00:48;;;;;;;0.70;0.50;;;14.90;99.50;;;;;;5058795;28;20693;-62
2023/05/30 02:03:17;;;;;;;1.20;0.57;;;14.90;99.90;;;;;;5050038;28;20211;-61
2023/05/30 02:05:44;;;;;;;0.80;0.52;;;14.90;99.80;;;;;;5049804;28;20571;-61
2023/05/30 02:08:12;;;;;;;3.63;0.80;;;14.90;99.90;;;;;;5056141;28;20338;-62
2023/05/30 02:10:40;;;;;;;1.35;0.50;;;14.80;99.90;;;;;;5055202;28;20246;-62
2023/05/30 02:13:08;;;;;;;0.80;0.50;;;14.80;99.90;;;;;;5051742;28;20203;-62
2023/05/30 02:15:37;;;;;;;0.90;0.50;;;14.80;99.90;;;;;;5052915;28;20204;-62
2023/05/30 02:18:08;;;;;;;1.00;0.80;;;14.80;99.90;;;;;;5052846;28;20227;-62
2023/05/30 02:20:36;;;;;;;1.48;1.00;;;14.70;99.90;;;;;;5058255;28;20222;-62
2023/05/30 02:23:04;;;;;;;1.25;0.60;;;14.70;99.90;;;;;;5049191;28;20214;-62
2023/05/30 02:25:32;;;;;;;1.05;0.95;;;14.80;99.90;;;;;;5052132;28;20206;-62
2023/05/30 02:28:00;;;;;;;0.63;0.50;;;14.70;99.90;;;;;;5050059;28;20223;-62
2023/05/30 02:30:28;;;;;;;1.80;0.50;;;14.70;99.90;;;;;;5054654;28;20697;-62
2023/05/30 02:32:56;;;;;;;0.80;0.60;;;14.70;99.90;;;;;;5054538;28;20214;-62
2023/05/30 02:35:25;;;;;;;0.60;0.50;;;14.60;99.90;;;;;;5051023;28;20200;-62
2023/05/30 02:37:53;;;;;;;1.50;0.70;;;14.60;99.90;;;;;;5049669;28;20231;-62
2023/05/30 02:40:21;;;;;;;1.05;0.50;;;14.60;99.90;;;;;;5052417;28;20215;-62
2023/05/30 02:42:49;;;;;;;0.93;0.50;;;14.60;99.90;;;;;;5054951;28;20200;-63
2023/05/30 02:45:17;;;;;;;0.70;0.50;;;14.60;99.90;;;;;;5052436;28;20208;-62
2023/05/30 02:47:45;;;;;;;0.80;0.50;;;14.60;99.90;;;;;;5056723;28;20227;-62
2023/05/30 02:50:13;;;;;;;1.08;0.75;;;14.60;99.90;;;;;;5053988;28;20218;-61
2023/05/30 02:52:42;;;;;;;1.00;0.50;;;14.50;99.90;;;;;;5044209;28;20208;-61
2023/05/30 02:55:12;;;;;;;0.60;0.50;;;14.50;99.90;;;;;;5048290;28;20743;-61
2023/05/30 02:57:40;;;;;;;0.63;0.60;;;14.40;99.90;;;;;;5054948;28;20230;-62
2023/05/30 03:00:10;;;;;;;0.60;0.40;;;14.50;99.90;;;;;;5058336;28;20586;-61
2023/05/30 03:02:39;;;;;;;2.00;0.70;;;14.40;99.90;;;;;;5048431;28;20203;-61
2023/05/30 03:05:10;;;;;;;1.05;0.80;;;14.30;99.90;;;;;;5051131;28;20208;-61
2023/05/30 03:07:38;;;;;;;0.80;0.60;;;14.30;99.90;;;;;;5060982;28;20227;-61
2023/05/30 03:10:08;;;;;;;2.38;0.85;;;14.30;99.90;;;;;;5055206;28;20211;-61
2023/05/30 03:12:36;;;;;;;0.85;0.60;;;14.20;99.90;;;;;;5052265;28;20283;-60
2023/05/30 03:15:05;;;;;;;1.23;0.73;;;14.20;99.90;;;;;;5060187;28;20681;-61
2023/05/30 03:17:33;;;;;;;0.90;0.70;;;14.20;99.90;;;;;;5054907;28;20245;-61
2023/05/30 03:20:01;;;;;;;0.70;0.60;;;14.20;99.90;;;;;;5052891;28;20199;-60
2023/05/30 03:22:29;;;;;;;1.00;0.60;;;14.10;99.90;;;;;;5053599;28;20215;-61
2023/05/30 03:24:57;;;;;;;0.80;0.68;;;14.00;99.90;;;;;;5053719;28;20282;-61
2023/05/30 03:27:27;;;;;;;1.88;1.02;;;14.10;99.90;;;;;;5057222;28;20232;-62
2023/05/30 03:29:56;;;;;;;1.10;1.00;;;14.00;99.90;;;;;;5054147;28;20212;-62
2023/05/30 03:32:24;;;;;;;0.70;0.45;;;14.00;99.90;;;;;;5056827;28;20195;-62
2023/05/30 03:34:52;;;;;;;0.70;0.50;;;14.00;99.90;;;;;;5054263;28;20658;-61
2023/05/30 03:37:21;;;;;;;1.30;0.90;;;14.00;99.90;;;;;;5052639;28;20234;-61
2023/05/30 03:39:48;;;;;;;0.73;0.50;;;14.00;99.90;;;;;;5051812;28;20203;-62
2023/05/30 03:42:16;;;;;;;1.85;0.77;;;14.00;99.90;;;;;;5053779;28;20226;-63
2023/05/30 03:44:46;;;;;;;1.13;0.70;;;13.90;99.90;;;;;;5049816;28;20681;-62
2023/05/30 03:47:14;;;;;;;0.70;0.45;;;13.90;99.90;;;;;;5056342;28;20219;-62
2023/05/30 03:49:42;;;;;;;1.38;0.50;;;14.00;99.90;;;;;;5051498;28;20262;-62
2023/05/30 03:52:10;;;;;;;0.65;0.50;;;14.10;99.90;;;;;;5061397;28;20195;-62
2023/05/30 03:54:38;;;;;;;1.10;0.70;;;14.00;99.90;;;;;;5057631;28;20670;-62
2023/05/30 03:57:06;;;;;;;2.35;0.60;;;14.10;99.90;;;;;;5054211;28;20227;-62
2023/05/30 03:59:34;;;;;;;0.70;0.43;;;14.00;99.90;;;;;;5053039;28;20266;-62
2023/05/30 04:02:04;;;;;;;0.70;0.50;;;14.20;99.90;;;;;;5055972;28;20635;-62
2023/05/30 04:04:31;;;;;;;0.90;0.57;;;14.20;99.90;;;;;;5059348;28;20198;-62
2023/05/30 04:07:00;;;;;;;0.80;0.70;;;14.20;99.90;;;;;;5048449;28;20220;-62
2023/05/30 04:09:28;;;;;;;0.60;0.60;;;14.20;99.90;;;;;;5052850;28;20212;-62
2023/05/30 04:11:56;;;;;;;0.80;0.50;;;14.30;99.90;;;;;;5057074;28;20200;-62
2023/05/30 04:14:23;;;;;;;1.05;0.60;;;14.30;99.90;;;;;;5055411;28;20223;-61
2023/05/30 04:16:56;;;;;;;0.85;0.40;;;14.40;99.90;;;;;;5049808;28;20215;-60
2023/05/30 04:19:25;;;;;;;0.90;0.60;;;14.30;99.90;;;;;;5051555;28;20722;-61
2023/05/30 04:21:53;;;;;;;0.60;0.50;;;14.30;99.90;;;;;;5062601;28;20261;-61
2023/05/30 04:24:22;;;;;;;0.80;0.60;;;14.20;99.90;;;;;;5054816;28;20216;-61
2023/05/30 04:26:50;;;;;;;2.78;0.90;;;14.20;99.90;;;;;;5050364;28;20208;-64
2023/05/30 04:29:20;;;;;;;0.68;0.50;;;14.30;99.90;;;;;;5050884;28;20706;-61
2023/05/30 04:31:48;;;;;;;1.27;0.57;;;14.30;99.90;;;;;;5042746;28;20212;-61
2023/05/30 04:34:17;;;;;;;1.20;0.77;;;14.40;99.90;;;;;;5047689;28;20310;-61
2023/05/30 04:36:47;;;;;;;0.70;0.60;;;14.40;99.90;;;;;;5051630;28;20204;-61
2023/05/30 04:39:14;;;;;;;1.52;0.77;;;14.40;99.90;;;;;;5055508;28;20208;-61
2023/05/30 04:41:42;;;;;;;1.13;0.80;;;14.40;99.90;;;;;;5049265;28;21165;-61
2023/05/30 04:44:10;;;;;;;5.03;0.98;;;14.40;99.90;;;;;;5053887;28;20666;-61
2023/05/30 04:46:38;;;;;;;0.68;0.60;;;14.40;99.90;;;;;;5050173;28;20670;-61
2023/05/30 04:49:06;;;;;;;0.60;0.40;;;14.50;99.90;;;;;;5050629;28;20208;-61
2023/05/30 04:51:34;;;;;;;1.13;0.95;;;14.50;99.90;;;;;;5057240;28;20203;-61
2023/05/30 04:54:03;;;;;;;0.60;0.50;;;14.60;99.90;;;;;;5057306;28;20214;-61
2023/05/30 04:56:31;;;;;;;0.70;0.50;;;14.70;99.90;;;;;;5056940;28;20207;-61
2023/05/30 04:58:59;;;;;;;0.70;0.50;;;14.70;99.90;;;;;;5049723;28;20710;-61
2023/05/30 05:01:28;;;;;;;1.08;0.75;;;14.70;99.90;;;;;;5050109;28;20220;-61
2023/05/30 05:03:56;;;;;;;0.60;0.50;;;14.80;99.90;;;;;;5044297;28;20196;-61
2023/05/30 05:06:24;;;;;;;0.60;0.45;;;14.90;99.90;;;;;;5052401;28;20207;-62
2023/05/30 05:08:52;;;;;;;0.60;0.52;;;14.90;99.90;;;;;;5060579;28;20231;-61
2023/05/30 05:11:22;;;;;;;0.77;0.63;;;14.90;99.90;;;;;;5052537;28;20203;-61
2023/05/30 05:13:50;;;;;;;0.60;0.43;;;14.90;99.90;;;;;;5056445;28;20246;-61
2023/05/30 05:16:18;;;;;;;0.60;0.50;;;14.90;99.90;;;;;;5050563;28;20262;-61
2023/05/30 05:18:46;;;;;;;0.80;0.60;;;14.90;99.90;;;;;;5050448;28;20247;-61
2023/05/30 05:21:14;;;;;;;0.85;0.57;;;15.00;99.90;;;;;;5049330;28;20223;-62
2023/05/30 05:23:42;;;;;;;0.77;0.50;;;15.10;99.90;;;;;;5051414;28;20329;-61
2023/05/30 05:26:10;;;;;;;1.15;0.80;;;15.10;99.90;;;;;;5049821;28;20204;-61
2023/05/30 05:28:39;;;;;;;0.70;0.40;;;15.10;99.90;;;;;;5046586;28;20218;-61
2023/05/30 05:31:07;;;;;;;1.02;0.82;;;15.10;99.90;;;;;;5050282;28;20211;-61
2023/05/30 05:33:35;;;;;;;0.60;0.40;;;15.20;99.90;;;;;;5049709;28;20266;-61
2023/05/30 05:36:03;;;;;;;0.90;0.60;;;15.20;99.90;;;;;;5051417;28;20623;-61
2023/05/30 05:38:31;;;;;;;0.82;0.65;;;15.10;99.90;;;;;;5051055;28;20230;-61
2023/05/30 05:40:59;;;;;;;0.60;0.50;;;15.10;99.90;;;;;;5050361;28;20239;-61
2023/05/30 05:43:27;;;;;;;0.80;0.50;;;15.10;99.90;;;;;;5053837;28;20310;-61
2023/05/30 05:45:56;;;;;;;0.63;0.50;;;15.20;99.90;;;;;;5049175;28;20254;-61
2023/05/30 05:48:25;;;;;;;0.70;0.57;;;15.10;99.90;;;;;;5048336;28;20219;-61
2023/05/30 05:50:53;;;;;;;2.88;0.70;;;15.20;99.90;;;;;;5057403;28;20549;-61
2023/05/30 05:53:21;;;;;;;0.70;0.50;;;15.20;99.90;;;;;;5051049;28;20235;-61
2023/05/30 05:55:48;;;;;;;0.60;0.50;;;15.30;99.90;;;;;;5048932;28;20203;-61
2023/05/30 05:58:16;;;;;;;0.98;0.45;;;15.40;99.90;;;;;;5052283;28;20703;-61
2023/05/30 06:00:44;;;;;;;0.60;0.50;;;15.60;99.90;;;;;;5048781;28;20212;-61
2023/05/30 06:03:13;;;;;;;1.15;0.60;;;15.70;99.90;;;;;;5053923;28;20698;-61
2023/05/30 06:05:42;;;;;;;0.60;0.50;;;15.90;99.90;;;;;;5057601;28;20217;-61
2023/05/30 06:08:10;;;;;;;0.60;0.40;;;16.00;99.90;;;;;;5050642;28;20223;-61
2023/05/30 06:10:37;;;;;;;0.70;0.47;;;16.00;99.90;;;;;;5050631;28;20204;-61
2023/05/30 06:13:06;;;;;;;0.70;0.55;;;16.10;99.90;;;;;;5056853;28;20207;-60
2023/05/30 06:15:34;;;;;;;0.90;0.50;;;16.20;99.90;;;;;;5055561;28;20608;-62
2023/05/30 06:18:02;;;;;;;1.85;0.70;;;16.20;99.90;;;;;;5051507;28;20250;-61
2023/05/30 06:20:31;;;;;;;0.60;0.40;;;16.30;99.90;;;;;;5049519;28;20209;-60
2023/05/30 06:22:59;;;;;;;0.60;0.40;;;16.40;99.50;;;;;;5051763;28;20225;-61
2023/05/30 06:25:27;;;;;;;0.50;0.30;;;16.40;99.80;;;;;;5057717;28;20203;-61
2023/05/30 06:27:55;;;;;;;0.73;0.47;;;16.40;99.70;;;;;;5047413;28;20219;-61
2023/05/30 06:30:24;;;;;;;1.02;0.70;;;16.50;99.20;;;;;;5048483;28;20215;-61
2023/05/30 06:32:52;;;;;;;0.70;0.50;;;16.50;99.60;;;;;;5049165;28;20266;-61
2023/05/30 06:35:20;;;;;;;0.70;0.50;;;16.60;99.80;;;;;;5050412;28;20670;-61
2023/05/30 06:37:49;;;;;;;0.70;0.57;;;16.50;98.60;;;;;;5050372;28;20234;-61
2023/05/30 06:40:17;;;;;;;0.60;0.50;;;16.50;99.00;;;;;;5053834;28;20203;-61
2023/05/30 06:42:45;;;;;;;0.60;0.43;;;16.60;98.80;;;;;;5054305;28;20235;-61
2023/05/30 06:45:13;;;;;;;2.00;1.20;;;16.70;99.90;;;;;;5055089;28;20203;-61
2023/05/30 06:47:41;;;;;;;0.60;0.40;;;16.80;99.90;;;;;;5054455;28;20234;-61
2023/05/30 06:50:10;;;;;;;0.60;0.50;;;16.80;99.40;;;;;;5054719;28;20205;-61
2023/05/30 06:52:38;;;;;;;1.02;0.93;;;16.70;99.60;;;;;;5054237;28;20199;-62
2023/05/30 06:55:08;;;;;;;0.60;0.45;;;16.80;99.80;;;;;;5054383;28;20196;-62
2023/05/30 06:57:37;;;;;;;4.40;0.63;;;16.90;99.90;;;;;;5054440;28;20223;-61
2023/05/30 07:00:06;;;;;;;0.60;0.52;;;16.90;99.20;;;;;;5054636;28;20203;-62
2023/05/30 07:02:34;;;;;;;0.80;0.73;;;17.00;99.50;;;;;;5053887;28;20232;-62
2023/05/30 07:05:02;;;;;;;0.60;0.50;;;17.10;99.80;;;;;;5054094;28;20204;-62
2023/05/30 07:07:31;;;;;;;1.08;0.70;;;17.10;98.90;;;;;;5054145;28;20223;-62
2023/05/30 07:09:58;;;;;;;0.75;0.40;;;17.20;99.80;;;;;;5054316;28;20609;-62
2023/05/30 07:12:28;;;;;;;1.00;0.93;;;17.10;99.30;;;;;;5054403;28;20204;-62
2023/05/30 07:14:56;;;;;;;0.70;0.45;;;17.20;99.80;;;;;;5054100;28;20200;-62
2023/05/30 07:17:24;;;;;;;0.60;0.45;;;17.30;99.90;;;;;;5053873;28;20285;-62
2023/05/30 07:19:52;;;;;;;0.60;0.40;;;17.30;98.80;;;;;;5054026;28;20223;-63
2023/05/30 07:22:19;;;;;;;0.60;0.40;;;17.20;99.40;;;;;;5053941;28;20543;-62
2023/05/30 07:24:47;;;;;;;4.18;0.60;;;17.20;99.00;;;;;;5053318;28;20208;-62
2023/05/30 07:27:15;;;;;;;0.65;0.40;;;17.40;99.10;;;;;;5053964;28;20219;-62
2023/05/30 07:29:45;;;;;;;0.77;0.40;;;17.50;98.70;;;;;;5053879;28;20210;-62
2023/05/30 07:32:13;;;;;;;0.60;0.50;;;17.80;98.30;;;;;;5053783;28;20253;-62
2023/05/30 07:34:41;;;;;;;1.45;1.35;;;17.90;98.00;;;;;;5053382;28;20257;-62
2023/05/30 07:37:09;;;;;;;0.60;0.40;;;18.00;97.80;;;;;;5053841;28;20236;-62
2023/05/30 07:39:37;;;;;;;0.60;0.45;;;18.00;97.80;;;;;;5053440;28;20204;-63
2023/05/30 07:42:07;;;;;;;0.50;0.30;;;17.80;98.10;;;;;;5053657;28;20200;-62
2023/05/30 07:44:35;;;;;;;0.70;0.50;;;17.60;98.40;;;;;;5053095;28;20698;-62
2023/05/30 07:47:04;;;;;;;0.70;0.50;;;17.50;98.00;;;;;;5053750;28;20259;-62
2023/05/30 07:49:32;;;;;;;0.68;0.45;;;17.70;99.40;;;;;;5053523;28;20199;-61
2023/05/30 07:52:00;;;;;;;0.60;0.40;;;17.80;97.70;;;;;;5053672;28;20604;-62
2023/05/30 07:54:28;;;;;;;1.05;0.47;;;17.90;98.50;;;;;;5053125;28;20628;-62
2023/05/30 07:56:56;;;;;;;0.60;0.40;;;17.90;98.20;;;;;;5053654;28;20709;-62
2023/05/30 07:59:24;;;;;;;1.20;1.10;;;18.00;98.50;;;;;;5053384;28;20245;-62
2023/05/30 08:01:52;;;;;;;1.45;0.70;;;18.20;97.60;;;;;;5053298;28;20208;-63
2023/05/30 08:04:22;;;;;;;2.22;0.80;;;18.30;97.60;;;;;;5052903;28;20225;-62
2023/05/30 08:06:50;;;;;;;0.60;0.40;;;18.40;97.10;;;;;;5053078;28;20203;-62
2023/05/30 08:09:18;;;;;;;0.60;0.50;;;18.50;97.60;;;;;;5053348;28;20242;-62
2023/05/30 08:11:45;;;;;;;0.52;0.40;;;18.70;97.20;;;;;;5052330;28;20701;-62
2023/05/30 08:14:13;;;;;;;0.75;0.75;;;18.90;96.90;;;;;;5052853;28;20200;-62
2023/05/30 08:16:41;;;;;;;1.60;1.25;;;19.10;97.10;;;;;;5052611;28;20745;-62
2023/05/30 08:19:09;;;;;;;0.60;0.45;;;19.30;96.50;;;;;;5053184;28;20205;-62
2023/05/30 08:21:39;;;;;;;0.60;0.40;;;19.40;95.70;;;;;;5052792;28;20211;-62
2023/05/30 08:24:08;;;;;;;0.60;0.50;;;19.50;96.00;;;;;;5052702;28;20570;-62
2023/05/30 08:26:36;;;;;;;0.70;0.50;;;19.60;95.30;;;;;;5052664;28;20208;-62
2023/05/30 08:29:04;;;;;;;0.60;0.40;;;19.60;94.70;;;;;;5052692;28;20212;-63
2023/05/30 08:31:32;;;;;;;0.55;0.38;;;19.60;94.70;;;;;;5052796;28;20258;-62
2023/05/30 08:34:02;;;;;;;0.60;0.47;;;19.70;94.70;;;;;;5052592;28;20208;-63
2023/05/30 08:36:31;;;;;;;0.60;0.40;;;19.70;94.30;;;;;;5052742;28;20214;-63
2023/05/30 08:39:01;;;;;;;0.80;0.40;;;19.80;94.40;;;;;;5052007;28;20204;-62
2023/05/30 08:41:32;;;;;;;0.68;0.63;;;19.90;94.50;;;;;;5052596;28;20215;-62
2023/05/30 08:44:00;;;;;;;0.60;0.40;;;20.20;95.20;;;;;;5052305;28;20227;-63
2023/05/30 08:46:29;;;;;;;0.60;0.40;;;20.30;94.60;;;;;;5052883;28;20204;-62
2023/05/30 08:48:57;;;;;;;0.60;0.43;;;20.40;93.50;;;;;;5052112;28;20259;-63
2023/05/30 08:51:27;;;;;;;0.70;0.50;;;20.50;93.30;;;;;;5052602;28;20410;-62
2023/05/30 08:54:00;;;;;;;0.63;0.45;;;20.40;94.10;;;;;;5052023;28;20208;-62
2023/05/30 08:56:33;;;;;;;0.70;0.52;;;20.50;92.90;;;;;;5052454;28;20686;-63
2023/05/30 08:59:03;;;;;;;0.60;0.40;;;20.70;93.90;;;;;;5052341;28;20262;-63
2023/05/30 09:01:31;;;;;;;1.40;0.63;;;20.90;92.60;;;;;;5051683;28;20205;-63
2023/05/30 09:03:59;;;;;;;0.60;0.50;;;20.90;91.60;;;;;;5051346;28;20219;-63
2023/05/30 09:06:28;;;;;;;0.90;0.70;;;20.90;93.40;;;;;;5052084;28;20208;-63
2023/05/30 09:08:56;;;;;;;0.70;0.50;;;21.10;92.40;;;;;;5051632;28;20251;-63
2023/05/30 09:11:25;;;;;;;0.60;0.40;;;21.30;91.00;;;;;;5051835;28;20205;-62
2023/05/30 09:13:54;;;;;;;0.60;0.45;;;21.50;92.50;;;;;;5051242;28;20255;-62
2023/05/30 09:16:22;;;;;;;0.60;0.40;;;21.50;91.30;;;;;;5051942;28;20203;-62
2023/05/30 09:18:50;;;;;;;0.75;0.50;;;21.60;93.40;;;;;;5051118;28;20240;-63
2023/05/30 09:21:18;;;;;;;0.80;0.75;;;21.90;92.10;;;;;;5051719;28;20639;-63
2023/05/30 09:24:02;;;;;;;0.70;0.52;;;21.90;91.70;;;;;;5051342;28;20267;-62
2023/05/30 09:26:30;;;;;;;0.60;0.50;;;22.10;91.10;;;;;;5051746;28;20216;-63
2023/05/30 09:29:08;;;;;;;0.50;0.35;;;22.00;90.40;;;;;;5051256;28;20239;-62
2023/05/30 09:31:37;;;;;;;1.00;0.50;;;22.10;90.90;;;;;;5051673;28;20209;-62
2023/05/30 09:34:06;;;;;;;6.60;1.23;;;22.40;92.70;;;;;;5043604;28;20209;-62
2023/05/30 09:36:35;;;;;;;0.80;0.60;;;22.60;91.00;;;;;;5051354;28;20284;-63
2023/05/30 09:39:05;;;;;;;0.93;0.70;;;22.90;90.90;;;;;;5042862;28;20657;-62
2023/05/30 09:41:34;;;;;;;0.77;0.40;;;23.20;89.40;;;;;;5051440;28;20231;-63
2023/05/30 09:44:05;;;;;;;0.70;0.60;;;23.40;89.30;;;;;;5051067;28;20217;-63
2023/05/30 09:46:35;;;;;;;0.60;0.40;;;23.60;86.80;;;;;;5051428;28;20213;-63
2023/05/30 09:49:12;;;;;;;0.70;0.40;;;23.30;82.60;;;;;;5050868;28;20747;-62
2023/05/30 09:51:40;;;;;;;0.60;0.40;;;23.10;80.40;;;;;;5051457;28;20652;-62
2023/05/30 09:54:09;;;;;;;0.63;0.52;;;23.10;82.60;;;;;;5051157;28;20202;-63
2023/05/30 09:56:38;;;;;;;0.60;0.50;;;23.10;81.30;;;;;;5051165;28;20710;-63
2023/05/30 09:59:09;;;;;;;0.70;0.55;;;23.30;84.00;;;;;;5043586;28;20206;-63
2023/05/30 10:01:39;;;;;;;0.68;0.65;;;23.30;82.60;;;;;;5050791;28;20202;-62
2023/05/30 10:04:15;;;;;;;0.80;0.70;;;23.20;79.80;;;;;;5043274;28;20229;-62
2023/05/30 10:06:45;;;;;;;0.55;0.32;;;23.30;80.40;;;;;;5051060;28;20206;-62
2023/05/30 10:09:13;;;;;;;0.70;0.40;;;23.20;80.70;;;;;;5050846;28;20285;-62
2023/05/30 10:11:42;;;;;;;0.60;0.45;;;23.20;80.90;;;;;;5050470;28;20290;-62
2023/05/30 10:14:13;;;;;;;0.60;0.40;;;23.20;81.60;;;;;;5049937;28;20278;-64
2023/05/30 10:16:47;;;;;;;0.60;0.47;;;23.30;78.70;;;;;;5050698;28;20208;-63
2023/05/30 10:19:18;;;;;;;0.60;0.50;;;23.10;80.60;;;;;;5051678;28;20733;-63
2023/05/30 10:21:47;;;;;;;2.15;0.57;;;22.80;80.10;;;;;;5050501;28;20612;-63
2023/05/30 10:24:20;;;;;;;0.60;0.40;;;23.00;81.10;;;;;;5050699;28;20240;-62
2023/05/30 10:26:52;;;;;;;0.80;0.50;;;23.20;81.90;;;;;;5050882;28;20205;-63
2023/05/30 10:29:24;;;;;;;0.60;0.40;;;23.40;81.00;;;;;;5050691;28;20205;-62
2023/05/30 10:31:55;;;;;;;0.68;0.43;;;23.70;79.20;;;;;;5050667;28;20216;-62
2023/05/30 10:34:29;;;;;;;0.60;0.50;;;24.20;81.90;;;;;;5050614;28;20657;-63
2023/05/30 10:36:59;;;;;;;0.60;0.50;;;24.10;78.90;;;;;;5050418;28;20230;-63
2023/05/30 10:39:37;;;;;;;0.60;0.40;;;23.80;80.00;;;;;;5050462;28;20198;-63
2023/05/30 10:42:12;;;;;;;0.70;0.60;;;24.10;82.60;;;;;;5050686;28;20213;-63
2023/05/30 10:44:54;;;;;;;0.55;0.35;;;24.10;82.90;;;;;;5050498;28;20760;-63
2023/05/30 10:47:37;;;;;;;0.60;0.40;;;24.10;81.90;;;;;;5050605;28;20244;-63
2023/05/30 10:50:10;;;;;;;0.70;0.50;;;23.90;81.70;;;;;;5050311;28;20210;-63
2023/05/30 10:52:38;;;;;;;0.60;0.52;;;24.40;84.10;;;;;;5050757;28;20199;-63
2023/05/30 10:55:10;;;;;;;0.50;0.40;;;24.10;77.80;;;;;;5050274;28;20206;-63
2023/05/30 10:57:41;;;;;;;0.68;0.55;;;24.00;81.80;;;;;;5050530;28;20588;-63
2023/05/30 11:00:23;;;;;;;0.75;0.40;;;23.90;79.60;;;;;;5050449;28;20210;-63
2023/05/30 11:02:52;;;;;;;0.50;0.40;;;24.10;81.90;;;;;;5050208;28;20217;-63
2023/05/30 11:05:26;;;;;;;1.98;0.70;;;24.30;80.50;;;;;;5050205;28;20309;-63
2023/05/30 11:07:57;;;;;;;0.63;0.43;;;24.50;80.40;;;;;;5050357;28;20230;-63
2023/05/30 11:10:26;;;;;;;0.60;0.40;;;24.00;79.70;;;;;;5050058;28;20202;-63
2023/05/30 11:13:07;;;;;;;0.60;0.50;;;23.90;80.80;;;;;;5050199;28;20210;-63
2023/05/30 11:15:37;;;;;;;0.77;0.52;;;24.20;79.80;;;;;;5050494;28;20202;-63
2023/05/30 11:18:15;;;;;;;0.55;0.40;;;24.20;81.70;;;;;;5050297;28;20235;-63
2023/05/30 11:20:51;;;;;;;0.60;0.40;;;24.40;80.10;;;;;;5049951;28;20293;-62
2023/05/30 11:23:21;;;;;;;0.70;0.43;;;24.70;80.10;;;;;;5043408;28;20205;-63
2023/05/30 11:25:52;;;;;;;1.02;0.80;;;25.10;79.90;;;;;;5052333;28;20709;-63
2023/05/30 11:28:34;;;;;;;1.75;0.95;;;25.40;77.00;;;;;;5054064;28;20701;-63
2023/05/30 11:31:19;;;;;;;0.60;0.52;;;25.40;78.70;;;;;;5053813;28;20214;-63
2023/05/30 11:33:50;;;;;;;0.60;0.40;;;25.50;78.20;;;;;;5053969;28;20210;-63
2023/05/30 11:36:18;;;;;;;0.60;0.40;;;25.00;78.00;;;;;;5054229;28;20211;-63
2023/05/30 11:38:46;;;;;;;0.82;0.60;;;25.00;79.30;;;;;;5053932;28;20237;-64
2023/05/30 11:41:15;;;;;;;0.60;0.50;;;25.00;77.90;;;;;;5053631;28;20206;-63
2023/05/30 11:43:44;;;;;;;0.93;0.70;;;24.80;78.90;;;;;;5053684;28;20206;-63
2023/05/30 11:46:12;;;;;;;1.77;0.85;;;24.70;76.00;;;;;;5053834;28;20280;-63
2023/05/30 11:48:43;;;;;;;0.60;0.50;;;24.70;78.70;;;;;;5053648;28;20316;-62
2023/05/30 11:51:11;;;;;;;0.50;0.30;;;24.50;77.70;;;;;;5045386;28;20263;-62
2023/05/30 11:53:39;;;;;;;0.90;0.50;;;24.80;79.10;;;;;;5053406;28;20196;-63
2023/05/30 11:56:08;;;;;;;0.60;0.40;;;25.30;76.50;;;;;;5053289;28;20368;-63
2023/05/30 11:58:36;;;;;;;0.70;0.50;;;25.40;78.40;;;;;;5053478;28;20309;-62
2023/05/30 12:01:05;;;;;;;0.82;0.70;;;25.20;76.80;;;;;;5052749;28;20702;-63
2023/05/30 12:03:34;;;;;;;0.93;0.50;;;25.40;74.80;;;;;;5053422;28;20210;-63
2023/05/30 12:06:12;;;;;;;0.60;0.40;;;25.20;73.80;;;;;;5053141;28;20303;-63
2023/05/30 12:08:41;;;;;;;0.60;0.47;;;25.00;73.90;;;;;;5053233;28;20248;-64
2023/05/30 12:11:11;;;;;;;0.60;0.40;;;25.00;76.20;;;;;;5052502;28;20229;-63
2023/05/30 12:13:40;;;;;;;0.63;0.40;;;25.10;77.10;;;;;;5053535;28;20602;-63
2023/05/30 12:16:08;;;;;;;0.60;0.40;;;25.10;76.40;;;;;;5052960;28;20665;-63
2023/05/30 12:18:36;;;;;;;0.68;0.65;;;25.10;77.00;;;;;;5052911;28;20238;-63
2023/05/30 12:21:04;;;;;;;0.70;0.50;;;25.30;75.50;;;;;;5052618;28;20206;-63
2023/05/30 12:23:34;;;;;;;1.23;0.50;;;25.30;76.10;;;;;;5052606;28;20203;-63
2023/05/30 12:26:01;;;;;;;0.60;0.40;;;25.70;79.20;;;;;;5052781;28;20225;-63
2023/05/30 12:28:32;;;;;;;0.50;0.30;;;25.60;74.30;;;;;;5053142;28;20588;-63
2023/05/30 12:31:00;;;;;;;1.02;0.40;;;25.80;75.80;;;;;;5052655;28;20208;-63
2023/05/30 12:33:30;;;;;;;0.50;0.40;;;25.80;75.30;;;;;;5052619;28;20214;-64
2023/05/30 12:35:58;;;;;;;0.50;0.35;;;26.00;75.80;;;;;;5052315;28;20196;-63
2023/05/30 12:38:26;;;;;;;0.60;0.40;;;25.80;73.90;;;;;;5052173;28;20220;-63
2023/05/30 12:40:56;;;;;;;1.88;0.80;;;25.80;70.90;;;;;;5052295;28;20237;-63
2023/05/30 12:43:28;;;;;;;0.60;0.40;;;25.70;72.90;;;;;;5052527;28;20214;-64
2023/05/30 12:45:59;;;;;;;0.70;0.55;;;25.50;74.30;;;;;;5052314;28;20688;-63
2023/05/30 12:48:28;;;;;;;0.90;0.50;;;25.70;75.10;;;;;;5052977;28;20222;-63
2023/05/30 12:50:58;;;;;;;0.50;0.40;;;25.90;74.70;;;;;;5052038;28;20234;-63
2023/05/30 12:53:27;;;;;;;0.70;0.60;;;25.60;72.60;;;;;;5052293;28;20207;-63
2023/05/30 12:55:56;;;;;;;0.70;0.60;;;25.90;74.70;;;;;;5052254;28;20662;-62
2023/05/30 12:58:24;;;;;;;0.60;0.40;;;26.00;74.90;;;;;;5052837;28;20230;-63
2023/05/30 13:00:52;;;;;;;0.60;0.40;;;26.50;72.90;;;;;;5051922;28;20215;-63